createdAt,value
2023-03-13T00:00:10.705Z,164.33
2023-03-13T00:00:42.520Z,163.33
2023-03-13T00:01:19.164Z,162.67
2023-03-13T00:01:51.386Z,161.33
2023-03-13T00:02:23.132Z,161.00
2023-03-13T00:02:54.820Z,161.00
2023-03-13T00:03:27.981Z,161.67
2023-03-13T00:03:59.740Z,162.00
2023-03-13T00:04:31.778Z,163.00
2023-03-13T00:05:03.958Z,163.67
2023-03-13T00:05:36.336Z,164.33
2023-03-13T00:06:08.169Z,165.00
2023-03-13T00:06:40.418Z,164.67
2023-03-13T00:07:13.649Z,165.00
2023-03-13T00:07:45.324Z,164.00
2023-03-13T00:08:17.010Z,163.33
2023-03-13T00:08:48.695Z,161.00
2023-03-13T00:09:20.415Z,158.67
2023-03-13T00:09:52.332Z,157.33
2023-03-13T00:10:24.094Z,156.33
2023-03-13T00:10:56.149Z,155.00
2023-03-13T00:11:28.405Z,153.00
2023-03-13T00:12:00.091Z,152.33
2023-03-13T00:12:31.801Z,153.00
2023-03-13T00:13:03.502Z,154.00
2023-03-13T00:13:36.020Z,155.33
2023-03-13T00:14:08.859Z,157.33
2023-03-13T00:14:40.538Z,159.67
2023-03-13T00:15:12.460Z,160.33
2023-03-13T00:15:44.256Z,161.00
2023-03-13T00:16:16.973Z,161.00
2023-03-13T00:16:48.814Z,161.33
2023-03-13T00:17:20.545Z,162.00
2023-03-13T00:17:52.205Z,162.00
2023-03-13T00:18:23.860Z,162.00
2023-03-13T00:18:57.237Z,162.00
2023-03-13T00:19:28.987Z,161.33
2023-03-13T00:20:01.544Z,161.00
2023-03-13T00:20:33.204Z,160.00
2023-03-13T00:21:08.257Z,158.67
2023-03-13T00:21:41.402Z,157.33
2023-03-13T00:22:13.271Z,156.67
2023-03-13T00:22:45.073Z,155.00
2023-03-13T00:23:16.806Z,153.33
2023-03-13T00:23:49.239Z,152.67
2023-03-13T00:24:21.047Z,151.33
2023-03-13T00:24:52.794Z,150.00
2023-03-13T00:25:24.542Z,150.00
2023-03-13T00:26:00.062Z,149.33
2023-03-13T00:26:31.859Z,148.33
2023-03-13T00:27:05.175Z,147.00
2023-03-13T00:27:36.829Z,146.00
2023-03-13T00:28:08.544Z,146.00
2023-03-13T00:28:42.009Z,147.00
2023-03-13T00:29:13.731Z,147.33
2023-03-13T00:29:45.593Z,148.00
2023-03-13T00:30:17.640Z,148.67
2023-03-13T00:30:49.425Z,149.67
2023-03-13T00:31:22.748Z,150.00
2023-03-13T00:31:54.807Z,150.67
2023-03-13T00:32:26.834Z,151.00
2023-03-13T00:32:58.637Z,151.00
2023-03-13T00:33:35.420Z,151.00
2023-03-13T00:34:07.138Z,151.00
2023-03-13T00:34:38.807Z,150.00
2023-03-13T00:35:10.463Z,150.00
2023-03-13T00:35:42.366Z,150.00
2023-03-13T00:36:25.348Z,150.00
2023-03-13T00:36:57.034Z,150.00
2023-03-13T00:37:28.764Z,150.00
2023-03-13T00:38:00.520Z,150.00
2023-03-13T00:38:33.397Z,150.00
2023-03-13T00:39:07.415Z,150.00
2023-03-13T00:39:39.186Z,150.00
2023-03-13T00:40:11.482Z,150.00
2023-03-13T00:40:43.159Z,151.00
2023-03-13T00:41:24.014Z,151.00
2023-03-13T00:41:55.727Z,150.33
2023-03-13T00:42:27.493Z,148.33
2023-03-13T00:42:59.755Z,147.67
2023-03-13T00:43:32.283Z,146.67
2023-03-13T00:44:04.460Z,143.33
2023-03-13T00:44:36.216Z,140.33
2023-03-13T00:45:08.215Z,138.00
2023-03-13T00:45:39.907Z,135.00
2023-03-13T00:46:14.057Z,134.00
2023-03-13T00:46:45.744Z,135.00
2023-03-13T00:47:17.477Z,135.00
2023-03-13T00:47:50.138Z,136.00
2023-03-13T00:48:22.500Z,136.00
2023-03-13T00:48:55.305Z,135.67
2023-03-13T00:49:27.052Z,135.33
2023-03-13T00:49:58.758Z,132.00
2023-03-13T00:50:30.420Z,129.67
2023-03-13T00:51:03.064Z,130.33
2023-03-13T00:51:34.849Z,131.00
2023-03-13T00:52:07.012Z,131.00
2023-03-13T00:52:38.701Z,132.00
2023-03-13T00:53:10.551Z,131.67
2023-03-13T00:53:42.700Z,131.00
2023-03-13T00:54:14.430Z,131.00
2023-03-13T00:54:46.184Z,130.00
2023-03-13T00:55:17.960Z,127.67
2023-03-13T00:55:58.431Z,127.00
2023-03-13T00:56:30.225Z,127.67
2023-03-13T00:57:01.932Z,128.00
2023-03-13T00:57:37.496Z,129.00
2023-03-13T00:58:09.188Z,129.00
2023-03-13T00:58:43.681Z,130.00
2023-03-13T00:59:15.873Z,131.00
2023-03-13T00:59:47.573Z,130.00
2023-03-13T01:00:19.807Z,130.00
2023-03-13T01:00:52.052Z,129.67
2023-03-13T01:01:27.963Z,130.00
2023-03-13T01:01:59.701Z,130.00
2023-03-13T01:02:31.518Z,130.00
2023-03-13T01:03:03.413Z,130.00
2023-03-13T01:03:35.984Z,130.00
2023-03-13T01:04:10.971Z,127.67
2023-03-13T01:04:42.717Z,118.00
2023-03-13T01:05:14.403Z,119.67
2023-03-13T01:05:54.909Z,121.00
2023-03-13T01:06:29.862Z,122.00
2023-03-13T01:07:01.577Z,122.33
2023-03-13T01:07:33.254Z,123.00
2023-03-13T01:08:05.077Z,123.00
2023-03-13T01:08:36.995Z,123.00
2023-03-13T01:09:11.991Z,122.67
2023-03-13T01:09:43.701Z,123.00
2023-03-13T01:10:15.515Z,123.00
2023-03-13T01:10:47.173Z,123.00
2023-03-13T01:11:22.261Z,123.00
2023-03-13T01:11:53.925Z,123.00
2023-03-13T01:12:25.668Z,123.00
2023-03-13T01:12:57.360Z,123.00
2023-03-13T01:13:33.023Z,123.00
2023-03-13T01:14:07.936Z,123.00
2023-03-13T01:14:39.687Z,124.00
2023-03-13T01:15:11.734Z,124.00
2023-03-13T01:15:43.513Z,124.00
2023-03-13T01:16:18.942Z,124.67
2023-03-13T01:16:50.656Z,124.00
2023-03-13T01:17:25.153Z,125.00
2023-03-13T01:17:56.876Z,125.00
2023-03-13T01:18:28.718Z,125.00
2023-03-13T01:19:12.508Z,125.00
2023-03-13T01:19:44.760Z,125.00
2023-03-13T01:20:16.759Z,150.67
2023-03-13T01:20:48.497Z,241.67
2023-03-13T01:21:21.720Z,212.67
2023-03-13T01:21:53.461Z,173.33
2023-03-13T01:22:25.115Z,158.67
2023-03-13T01:22:56.903Z,156.33
2023-03-13T01:23:28.895Z,155.00
2023-03-13T01:24:01.178Z,154.00
2023-03-13T01:24:32.957Z,153.33
2023-03-13T01:25:05.487Z,152.67
2023-03-13T01:25:38.351Z,152.00
2023-03-13T01:26:10.530Z,151.00
2023-03-13T01:26:42.235Z,150.33
2023-03-13T01:27:13.870Z,149.33
2023-03-13T01:27:45.553Z,148.33
2023-03-13T01:28:17.262Z,147.67
2023-03-13T01:28:49.577Z,146.67
2023-03-13T01:29:21.285Z,145.67
2023-03-13T01:29:52.984Z,144.67
2023-03-13T01:30:24.708Z,143.67
2023-03-13T01:30:56.470Z,142.33
2023-03-13T01:31:31.456Z,140.33
2023-03-13T01:32:03.224Z,138.67
2023-03-13T01:32:35.527Z,138.00
2023-03-13T01:33:07.316Z,138.00
2023-03-13T01:33:39.260Z,138.67
2023-03-13T01:34:11.413Z,139.00
2023-03-13T01:34:43.134Z,139.33
2023-03-13T01:35:15.397Z,140.00
2023-03-13T01:35:47.320Z,141.00
2023-03-13T01:36:19.291Z,141.00
2023-03-13T01:36:52.433Z,141.00
2023-03-13T01:37:24.206Z,140.67
2023-03-13T01:37:56.070Z,140.00
2023-03-13T01:38:27.740Z,139.00
2023-03-13T01:39:00.968Z,137.33
2023-03-13T01:39:32.659Z,135.33
2023-03-13T01:40:04.857Z,134.33
2023-03-13T01:40:41.409Z,134.00
2023-03-13T01:41:13.160Z,133.00
2023-03-13T01:41:44.962Z,133.00
2023-03-13T01:42:16.703Z,133.00
2023-03-13T01:42:51.865Z,133.00
2023-03-13T01:43:27.605Z,132.00
2023-03-13T01:43:59.876Z,131.67
2023-03-13T01:44:51.986Z,132.00
2023-03-13T01:46:00.952Z,132.00
2023-03-13T01:46:32.834Z,131.33
2023-03-13T01:47:04.782Z,130.33
2023-03-13T01:47:36.480Z,130.00
2023-03-13T01:48:08.187Z,130.00
2023-03-13T01:49:05.522Z,130.00
2023-03-13T01:49:37.235Z,130.67
2023-03-13T01:50:09.564Z,130.00
2023-03-13T01:50:41.371Z,130.00
2023-03-13T01:51:28.721Z,129.67
2023-03-13T01:52:08.719Z,129.00
2023-03-13T01:52:40.503Z,128.33
2023-03-13T01:53:12.441Z,126.00
2023-03-13T01:53:49.086Z,123.00
2023-03-13T01:54:32.706Z,120.33
2023-03-13T01:55:16.212Z,118.00
2023-03-13T01:55:48.038Z,119.33
2023-03-13T01:56:25.703Z,120.00
2023-03-13T01:57:20.493Z,120.67
2023-03-13T01:57:55.003Z,121.00
2023-03-13T01:58:30.109Z,121.67
2023-03-13T01:59:04.767Z,122.00
2023-03-13T01:59:48.051Z,122.00
2023-03-13T02:00:25.090Z,122.00
2023-03-13T02:00:58.125Z,122.00
2023-03-13T02:01:31.076Z,122.67
2023-03-13T02:02:04.653Z,123.00
2023-03-13T02:02:41.572Z,123.00
2023-03-13T02:03:20.056Z,123.00
2023-03-13T02:03:52.407Z,122.67
2023-03-13T02:04:27.491Z,122.00
2023-03-13T02:05:03.322Z,121.67
2023-03-13T02:05:36.086Z,119.67
2023-03-13T02:06:08.984Z,117.67
2023-03-13T02:06:44.369Z,115.67
2023-03-13T02:07:28.122Z,111.67
2023-03-13T02:08:14.150Z,106.00
2023-03-13T02:08:53.501Z,104.33
2023-03-13T02:09:30.187Z,106.67
2023-03-13T02:10:02.407Z,108.00
2023-03-13T02:10:39.900Z,109.00
2023-03-13T02:11:23.935Z,110.33
2023-03-13T02:12:07.348Z,113.00
2023-03-13T02:12:41.347Z,114.00
2023-03-13T02:13:16.334Z,114.00
2023-03-13T02:13:50.840Z,114.00
2023-03-13T02:14:28.043Z,114.00
2023-03-13T02:15:05.075Z,112.33
2023-03-13T02:15:37.168Z,111.00
2023-03-13T02:16:10.303Z,110.67
2023-03-13T02:16:47.766Z,109.67
2023-03-13T02:17:20.312Z,109.00
2023-03-13T02:17:52.312Z,109.00
2023-03-13T02:18:26.092Z,110.00
2023-03-13T02:18:58.296Z,110.00
2023-03-13T02:19:43.168Z,110.67
2023-03-13T02:20:54.113Z,112.00
2023-03-13T02:21:55.367Z,112.33
2023-03-13T02:22:29.960Z,113.67
2023-03-13T02:23:20.256Z,114.67
2023-03-13T02:24:14.058Z,115.67
2023-03-13T02:25:15.971Z,116.67
2023-03-13T02:25:56.973Z,116.00
2023-03-13T02:26:28.694Z,117.00
2023-03-13T02:27:00.616Z,117.00
2023-03-13T02:27:32.579Z,118.00
2023-03-13T02:28:09.256Z,118.00
2023-03-13T02:28:41.034Z,118.00
2023-03-13T02:29:18.418Z,118.33
2023-03-13T02:29:51.910Z,119.00
2023-03-13T02:30:24.649Z,119.00
2023-03-13T02:30:58.739Z,119.00
2023-03-13T02:31:31.731Z,119.00
2023-03-13T02:32:04.323Z,119.00
2023-03-13T02:32:37.153Z,119.00
2023-03-13T02:33:09.472Z,119.00
2023-03-13T02:33:42.880Z,118.33
2023-03-13T02:34:21.784Z,115.00
2023-03-13T02:34:58.451Z,110.67
2023-03-13T02:35:33.263Z,108.67
2023-03-13T02:36:07.199Z,106.33
2023-03-13T02:36:39.704Z,105.00
2023-03-13T02:37:14.834Z,104.67
2023-03-13T02:37:51.834Z,103.00
2023-03-13T02:38:29.860Z,101.00
2023-03-13T02:39:05.985Z,98.00
2023-03-13T02:39:42.014Z,96.33
2023-03-13T02:40:21.446Z,96.67
2023-03-13T02:40:55.583Z,96.00
2023-03-13T02:41:29.572Z,95.67
2023-03-13T02:42:03.608Z,95.00
2023-03-13T02:42:42.136Z,96.67
2023-03-13T02:43:34.743Z,97.33
2023-03-13T02:44:06.966Z,98.00
2023-03-13T02:44:42.769Z,99.00
2023-03-13T02:45:16.677Z,99.67
2023-03-13T02:46:21.078Z,101.67
2023-03-13T02:46:53.133Z,106.00
2023-03-13T02:47:25.737Z,107.67
2023-03-13T02:47:57.448Z,108.67
2023-03-13T02:48:35.926Z,110.00
2023-03-13T02:49:21.112Z,110.67
2023-03-13T02:49:52.843Z,111.00
2023-03-13T02:50:24.571Z,111.33
2023-03-13T02:50:56.304Z,112.00
2023-03-13T02:51:43.621Z,111.00
2023-03-13T02:52:25.247Z,111.00
2023-03-13T02:53:03.657Z,110.67
2023-03-13T02:53:36.916Z,110.00
2023-03-13T02:54:18.104Z,110.00
2023-03-13T02:54:53.225Z,110.00
2023-03-13T02:55:30.159Z,110.00
2023-03-13T02:56:03.140Z,110.00
2023-03-13T02:56:37.823Z,110.00
2023-03-13T02:57:09.522Z,110.00
2023-03-13T02:57:41.226Z,111.00
2023-03-13T02:58:12.896Z,110.67
2023-03-13T02:58:50.045Z,111.00
2023-03-13T02:59:22.317Z,111.00
2023-03-13T02:59:54.047Z,111.00
2023-03-13T03:00:27.234Z,111.00
2023-03-13T03:01:00.858Z,111.00
2023-03-13T03:01:33.058Z,111.00
2023-03-13T03:02:05.343Z,111.00
2023-03-13T03:02:37.080Z,111.00
2023-03-13T03:03:08.802Z,111.00
2023-03-13T03:03:40.924Z,111.00
2023-03-13T03:04:13.294Z,111.00
2023-03-13T03:04:45.098Z,110.00
2023-03-13T03:05:16.818Z,110.00
2023-03-13T03:05:48.470Z,108.67
2023-03-13T03:06:20.284Z,107.00
2023-03-13T03:06:52.413Z,105.33
2023-03-13T03:07:24.145Z,104.00
2023-03-13T03:07:55.846Z,102.33
2023-03-13T03:08:27.877Z,99.67
2023-03-13T03:08:59.575Z,96.67
2023-03-13T03:09:32.092Z,95.00
2023-03-13T03:10:04.396Z,94.00
2023-03-13T03:10:39.209Z,93.00
2023-03-13T03:11:11.648Z,92.00
2023-03-13T03:11:43.411Z,91.00
2023-03-13T03:12:15.119Z,89.00
2023-03-13T03:12:46.812Z,90.00
2023-03-13T03:13:18.541Z,91.00
2023-03-13T03:13:50.300Z,91.67
2023-03-13T03:14:22.074Z,92.00
2023-03-13T03:14:53.792Z,92.67
2023-03-13T03:15:25.496Z,94.00
2023-03-13T03:15:57.231Z,98.33
2023-03-13T03:16:30.114Z,102.00
2023-03-13T03:17:01.824Z,105.33
2023-03-13T03:17:33.673Z,108.00
2023-03-13T03:18:05.439Z,109.33
2023-03-13T03:18:38.046Z,111.00
2023-03-13T03:19:11.100Z,112.00
2023-03-13T03:19:42.808Z,112.00
2023-03-13T03:20:14.505Z,111.67
2023-03-13T03:20:46.220Z,110.00
2023-03-13T03:21:18.017Z,103.00
2023-03-13T03:21:50.010Z,101.00
2023-03-13T03:22:21.777Z,101.00
2023-03-13T03:22:53.449Z,102.00
2023-03-13T03:23:25.164Z,102.00
2023-03-13T03:23:56.957Z,101.67
2023-03-13T03:24:28.777Z,100.67
2023-03-13T03:25:00.485Z,98.33
2023-03-13T03:25:32.224Z,96.67
2023-03-13T03:26:07.108Z,96.00
2023-03-13T03:26:38.858Z,96.00
2023-03-13T03:27:10.600Z,96.00
2023-03-13T03:27:42.365Z,96.00
2023-03-13T03:28:14.075Z,96.00
2023-03-13T03:28:46.145Z,95.33
2023-03-13T03:29:17.922Z,95.00
2023-03-13T03:29:49.602Z,94.33
2023-03-13T03:30:21.775Z,94.00
2023-03-13T03:30:54.412Z,94.00
2023-03-13T03:31:26.364Z,94.67
2023-03-13T03:31:58.165Z,95.00
2023-03-13T03:32:30.074Z,95.00
2023-03-13T03:33:04.132Z,95.00
2023-03-13T03:33:36.341Z,92.33
2023-03-13T03:34:08.154Z,82.33
2023-03-13T03:34:39.933Z,84.33
2023-03-13T03:35:11.865Z,85.00
2023-03-13T03:35:43.623Z,83.33
2023-03-13T03:36:19.188Z,75.33
2023-03-13T03:36:50.937Z,76.33
2023-03-13T03:37:22.690Z,74.67
2023-03-13T03:37:54.402Z,77.00
2023-03-13T03:38:26.100Z,87.00
2023-03-13T03:38:59.160Z,92.67
2023-03-13T03:39:30.876Z,91.33
2023-03-13T03:40:02.677Z,85.67
2023-03-13T03:40:34.395Z,80.00
2023-03-13T03:41:10.924Z,73.00
2023-03-13T03:41:42.596Z,72.67
2023-03-13T03:42:14.344Z,73.67
2023-03-13T03:42:46.018Z,73.00
2023-03-13T03:43:17.835Z,71.33
2023-03-13T03:43:49.711Z,71.00
2023-03-13T03:44:21.483Z,71.00
2023-03-13T03:44:53.213Z,71.67
2023-03-13T03:45:25.019Z,72.67
2023-03-13T03:45:57.482Z,74.00
2023-03-13T03:46:29.344Z,77.67
2023-03-13T03:47:01.042Z,82.67
2023-03-13T03:47:32.851Z,87.00
2023-03-13T03:48:04.826Z,90.67
2023-03-13T03:48:37.776Z,91.00
2023-03-13T03:49:09.544Z,91.00
2023-03-13T03:49:41.276Z,91.00
2023-03-13T03:50:13.055Z,91.00
2023-03-13T03:50:44.845Z,91.00
2023-03-13T03:51:16.760Z,91.00
2023-03-13T03:51:49.539Z,91.00
2023-03-13T03:52:21.272Z,91.00
2023-03-13T03:52:53.051Z,91.00
2023-03-13T03:53:25.327Z,91.00
2023-03-13T03:53:57.012Z,91.00
2023-03-13T03:54:29.415Z,91.00
2023-03-13T03:55:01.260Z,91.00
2023-03-13T03:55:35.060Z,91.00
2023-03-13T03:56:07.366Z,91.00
2023-03-13T03:56:39.154Z,90.00
2023-03-13T03:57:10.954Z,90.00
2023-03-13T03:57:42.616Z,90.00
2023-03-13T03:58:14.309Z,90.00
2023-03-13T03:58:46.312Z,90.00
2023-03-13T03:59:17.999Z,90.00
2023-03-13T03:59:49.694Z,90.00
2023-03-13T04:00:22.039Z,90.00
2023-03-13T04:00:57.693Z,90.00
2023-03-13T04:01:29.408Z,90.00
2023-03-13T04:02:01.498Z,90.00
2023-03-13T04:02:33.446Z,90.00
2023-03-13T04:03:05.365Z,91.00
2023-03-13T04:03:37.503Z,91.00
2023-03-13T04:04:09.244Z,91.33
2023-03-13T04:04:41.000Z,92.00
2023-03-13T04:05:12.773Z,93.00
2023-03-13T04:05:44.572Z,94.00
2023-03-13T04:06:16.304Z,94.67
2023-03-13T04:06:48.046Z,94.00
2023-03-13T04:07:19.851Z,94.00
2023-03-13T04:07:51.617Z,94.33
2023-03-13T04:08:23.357Z,95.67
2023-03-13T04:08:56.145Z,96.67
2023-03-13T04:09:29.857Z,97.33
2023-03-13T04:10:03.905Z,97.33
2023-03-13T04:10:36.130Z,97.00
2023-03-13T04:11:07.814Z,97.00
2023-03-13T04:11:39.603Z,97.00
2023-03-13T04:12:11.267Z,97.67
2023-03-13T04:12:42.996Z,98.33
2023-03-13T04:13:15.185Z,99.00
2023-03-13T04:13:46.877Z,99.67
2023-03-13T04:14:19.604Z,100.67
2023-03-13T04:14:51.313Z,101.00
2023-03-13T04:15:23.010Z,101.00
2023-03-13T04:15:54.854Z,100.67
2023-03-13T04:16:26.612Z,100.67
2023-03-13T04:16:58.416Z,101.00
2023-03-13T04:17:31.302Z,102.00
2023-03-13T04:18:03.019Z,105.00
2023-03-13T04:18:36.484Z,106.67
2023-03-13T04:19:08.943Z,107.33
2023-03-13T04:19:40.775Z,108.67
2023-03-13T04:20:14.383Z,109.33
2023-03-13T04:20:46.096Z,111.67
2023-03-13T04:21:17.832Z,112.00
2023-03-13T04:21:49.532Z,112.00
2023-03-13T04:22:21.310Z,113.00
2023-03-13T04:22:53.017Z,115.33
2023-03-13T04:23:24.706Z,115.33
2023-03-13T04:23:56.535Z,114.33
2023-03-13T04:24:28.269Z,114.00
2023-03-13T04:25:00.773Z,114.00
2023-03-13T04:25:32.491Z,114.00
2023-03-13T04:26:04.318Z,113.33
2023-03-13T04:26:36.044Z,113.00
2023-03-13T04:27:07.799Z,112.33
2023-03-13T04:27:39.539Z,112.00
2023-03-13T04:28:11.240Z,111.00
2023-03-13T04:28:43.056Z,111.00
2023-03-13T04:29:14.768Z,111.00
2023-03-13T04:29:46.513Z,110.00
2023-03-13T04:30:18.788Z,110.00
2023-03-13T04:30:50.708Z,110.00
2023-03-13T04:31:22.408Z,110.00
2023-03-13T04:31:54.101Z,109.67
2023-03-13T04:32:25.971Z,109.00
2023-03-13T04:32:57.826Z,108.33
2023-03-13T04:33:29.658Z,106.67
2023-03-13T04:34:01.398Z,105.00
2023-03-13T04:34:33.305Z,103.33
2023-03-13T04:35:05.425Z,103.00
2023-03-13T04:35:37.537Z,102.00
2023-03-13T04:36:09.977Z,100.67
2023-03-13T04:36:41.746Z,112.33
2023-03-13T04:37:13.446Z,312.00
2023-03-13T04:37:45.213Z,370.33
2023-03-13T04:38:16.916Z,344.33
2023-03-13T04:38:48.896Z,329.33
2023-03-13T04:39:25.250Z,337.67
2023-03-13T04:39:56.971Z,341.33
2023-03-13T04:40:29.130Z,286.67
2023-03-13T04:41:01.027Z,245.33
2023-03-13T04:41:32.767Z,222.67
2023-03-13T04:42:04.648Z,208.67
2023-03-13T04:42:36.653Z,205.00
2023-03-13T04:43:08.332Z,189.67
2023-03-13T04:43:40.016Z,169.00
2023-03-13T04:44:12.225Z,162.00
2023-03-13T04:44:44.079Z,149.67
2023-03-13T04:45:15.910Z,146.67
2023-03-13T04:45:47.691Z,143.00
2023-03-13T04:46:19.474Z,137.00
2023-03-13T04:46:51.281Z,131.00
2023-03-13T04:47:23.015Z,126.67
2023-03-13T04:47:54.740Z,123.00
2023-03-13T04:48:26.450Z,121.00
2023-03-13T04:48:58.115Z,119.00
2023-03-13T04:49:29.916Z,119.00
2023-03-13T04:50:01.581Z,118.00
2023-03-13T04:50:33.691Z,114.33
2023-03-13T04:51:05.574Z,112.67
2023-03-13T04:51:37.279Z,110.00
2023-03-13T04:52:09.018Z,107.67
2023-03-13T04:52:40.764Z,106.00
2023-03-13T04:53:12.526Z,103.00
2023-03-13T04:53:44.478Z,100.67
2023-03-13T04:54:16.522Z,116.00
2023-03-13T04:54:48.535Z,241.67
2023-03-13T04:55:20.431Z,335.33
2023-03-13T04:55:52.195Z,378.33
2023-03-13T04:56:41.691Z,347.33
2023-03-13T04:57:14.695Z,377.00
2023-03-13T04:57:46.466Z,365.00
2023-03-13T04:58:18.154Z,389.00
2023-03-13T04:58:50.077Z,381.67
2023-03-13T04:59:21.813Z,352.33
2023-03-13T04:59:53.707Z,346.67
2023-03-13T05:00:25.408Z,286.33
2023-03-13T05:00:57.159Z,243.67
2023-03-13T05:01:29.568Z,191.67
2023-03-13T05:02:01.348Z,175.33
2023-03-13T05:02:33.027Z,153.33
2023-03-13T05:03:04.720Z,139.00
2023-03-13T05:03:36.408Z,131.00
2023-03-13T05:04:09.376Z,122.33
2023-03-13T05:04:41.163Z,115.33
2023-03-13T05:05:13.277Z,112.33
2023-03-13T05:05:45.205Z,107.33
2023-03-13T05:06:17.065Z,106.67
2023-03-13T05:06:48.805Z,105.33
2023-03-13T05:07:20.478Z,105.33
2023-03-13T05:07:52.198Z,104.33
2023-03-13T05:08:23.945Z,107.33
2023-03-13T05:08:55.810Z,112.33
2023-03-13T05:09:27.486Z,110.33
2023-03-13T05:09:59.422Z,103.00
2023-03-13T05:10:31.664Z,99.00
2023-03-13T05:11:12.667Z,97.33
2023-03-13T05:11:44.395Z,95.67
2023-03-13T05:12:16.942Z,95.00
2023-03-13T05:12:48.665Z,94.00
2023-03-13T05:13:20.423Z,92.33
2023-03-13T05:13:52.257Z,91.33
2023-03-13T05:14:23.949Z,89.33
2023-03-13T05:14:55.689Z,90.00
2023-03-13T05:15:27.559Z,89.33
2023-03-13T05:15:59.290Z,88.33
2023-03-13T05:16:32.139Z,89.00
2023-03-13T05:17:03.825Z,90.00
2023-03-13T05:17:35.533Z,90.33
2023-03-13T05:18:07.291Z,91.33
2023-03-13T05:18:39.472Z,91.00
2023-03-13T05:19:11.367Z,89.00
2023-03-13T05:19:48.133Z,86.67
2023-03-13T05:20:21.776Z,83.33
2023-03-13T05:21:18.383Z,84.00
2023-03-13T05:21:51.645Z,200.67
2023-03-13T05:22:38.087Z,144.00
2023-03-13T05:23:15.526Z,125.33
2023-03-13T05:23:56.367Z,120.33
2023-03-13T05:24:41.985Z,109.00
2023-03-13T05:25:17.496Z,95.33
2023-03-13T05:25:49.542Z,91.00
2023-03-13T05:26:21.501Z,89.00
2023-03-13T05:26:53.597Z,87.67
2023-03-13T05:27:25.275Z,87.00
2023-03-13T05:27:56.995Z,87.00
2023-03-13T05:28:28.670Z,85.00
2023-03-13T05:29:00.482Z,84.00
2023-03-13T05:29:32.313Z,84.33
2023-03-13T05:30:04.348Z,87.00
2023-03-13T05:30:36.234Z,88.00
2023-03-13T05:31:07.946Z,88.67
2023-03-13T05:31:39.727Z,91.67
2023-03-13T05:32:11.402Z,122.67
2023-03-13T05:32:43.167Z,144.33
2023-03-13T05:33:15.049Z,157.33
2023-03-13T05:33:46.779Z,158.33
2023-03-13T05:34:18.941Z,143.00
2023-03-13T05:34:55.523Z,129.33
2023-03-13T05:35:32.145Z,125.33
2023-03-13T05:36:19.827Z,114.33
2023-03-13T05:36:51.708Z,98.33
2023-03-13T05:37:29.671Z,102.33
2023-03-13T05:38:03.863Z,104.00
2023-03-13T05:38:35.718Z,103.67
2023-03-13T05:39:09.353Z,103.00
2023-03-13T05:39:41.058Z,103.00
2023-03-13T05:40:13.352Z,103.00
2023-03-13T05:40:45.008Z,103.00
2023-03-13T05:41:16.674Z,103.67
2023-03-13T05:41:49.648Z,104.00
2023-03-13T05:42:22.732Z,103.00
2023-03-13T05:42:54.433Z,103.00
2023-03-13T05:43:26.170Z,102.00
2023-03-13T05:43:58.302Z,102.00
2023-03-13T05:44:30.021Z,102.33
2023-03-13T05:45:01.715Z,103.00
2023-03-13T05:45:33.440Z,112.67
2023-03-13T05:46:05.289Z,121.00
2023-03-13T05:46:37.099Z,121.67
2023-03-13T05:47:08.908Z,120.33
2023-03-13T05:47:41.721Z,120.00
2023-03-13T05:48:13.762Z,127.00
2023-03-13T05:48:46.964Z,141.33
2023-03-13T05:49:18.640Z,132.00
2023-03-13T05:49:50.390Z,128.33
2023-03-13T05:50:22.185Z,126.67
2023-03-13T05:50:53.861Z,126.00
2023-03-13T05:51:25.598Z,125.00
2023-03-13T05:51:57.360Z,124.33
2023-03-13T05:52:29.050Z,123.33
2023-03-13T05:53:00.759Z,121.67
2023-03-13T05:53:32.535Z,118.33
2023-03-13T05:54:04.371Z,116.33
2023-03-13T05:54:36.636Z,119.33
2023-03-13T05:55:08.715Z,132.33
2023-03-13T05:55:40.381Z,135.00
2023-03-13T05:56:12.230Z,130.33
2023-03-13T05:56:45.055Z,129.00
2023-03-13T05:57:16.744Z,128.33
2023-03-13T05:57:49.127Z,127.67
2023-03-13T05:58:20.825Z,127.00
2023-03-13T05:58:52.519Z,126.33
2023-03-13T05:59:24.264Z,125.33
2023-03-13T05:59:55.962Z,123.67
2023-03-13T06:00:27.769Z,121.67
2023-03-13T06:00:59.445Z,121.00
2023-03-13T06:01:31.130Z,120.67
2023-03-13T06:02:02.866Z,120.00
2023-03-13T06:02:34.566Z,118.67
2023-03-13T06:03:06.278Z,115.00
2023-03-13T06:03:38.335Z,111.00
2023-03-13T06:04:10.403Z,108.67
2023-03-13T06:04:42.380Z,107.67
2023-03-13T06:05:14.164Z,108.00
2023-03-13T06:05:46.104Z,117.67
2023-03-13T06:06:18.086Z,124.67
2023-03-13T06:06:49.827Z,125.00
2023-03-13T06:07:21.630Z,124.67
2023-03-13T06:07:53.536Z,123.67
2023-03-13T06:08:25.261Z,122.67
2023-03-13T06:08:57.199Z,131.67
2023-03-13T06:09:28.949Z,165.67
2023-03-13T06:10:00.662Z,158.00
2023-03-13T06:10:32.408Z,145.33
2023-03-13T06:11:04.284Z,139.00
2023-03-13T06:11:36.019Z,137.67
2023-03-13T06:12:09.383Z,136.67
2023-03-13T06:12:41.157Z,135.33
2023-03-13T06:13:19.831Z,135.00
2023-03-13T06:13:53.310Z,133.67
2023-03-13T06:14:25.339Z,132.33
2023-03-13T06:14:57.137Z,130.33
2023-03-13T06:15:28.926Z,128.67
2023-03-13T06:16:00.763Z,127.33
2023-03-13T06:16:32.570Z,127.67
2023-03-13T06:17:06.308Z,165.00
2023-03-13T06:17:38.019Z,193.00
2023-03-13T06:18:09.780Z,178.67
2023-03-13T06:18:41.495Z,163.00
2023-03-13T06:19:13.191Z,156.00
2023-03-13T06:19:46.855Z,152.00
2023-03-13T06:20:18.673Z,150.33
2023-03-13T06:20:57.490Z,149.33
2023-03-13T06:21:30.320Z,148.33
2023-03-13T06:22:02.072Z,147.67
2023-03-13T06:22:33.861Z,146.00
2023-03-13T06:23:05.681Z,144.33
2023-03-13T06:23:37.537Z,142.00
2023-03-13T06:24:09.354Z,140.00
2023-03-13T06:24:41.290Z,140.00
2023-03-13T06:25:13.017Z,140.00
2023-03-13T06:25:48.489Z,139.67
2023-03-13T06:26:20.207Z,145.67
2023-03-13T06:26:51.954Z,156.67
2023-03-13T06:27:24.126Z,158.00
2023-03-13T06:27:55.930Z,155.00
2023-03-13T06:28:28.201Z,154.00
2023-03-13T06:28:59.904Z,159.00
2023-03-13T06:29:31.675Z,157.33
2023-03-13T06:30:04.264Z,191.67
2023-03-13T06:30:36.837Z,221.00
2023-03-13T06:31:08.705Z,207.33
2023-03-13T06:31:40.496Z,210.33
2023-03-13T06:32:12.380Z,245.33
2023-03-13T06:32:44.198Z,229.33
2023-03-13T06:33:16.135Z,197.67
2023-03-13T06:33:53.685Z,185.00
2023-03-13T06:34:25.412Z,180.33
2023-03-13T06:34:57.129Z,164.67
2023-03-13T06:35:29.488Z,148.67
2023-03-13T06:36:02.342Z,141.67
2023-03-13T06:36:34.143Z,133.67
2023-03-13T06:37:06.060Z,126.67
2023-03-13T06:37:38.033Z,124.00
2023-03-13T06:38:11.740Z,124.67
2023-03-13T06:38:44.055Z,128.33
2023-03-13T06:39:15.731Z,128.67
2023-03-13T06:39:47.537Z,124.67
2023-03-13T06:40:19.396Z,125.67
2023-03-13T06:40:51.085Z,126.67
2023-03-13T06:41:22.836Z,129.00
2023-03-13T06:41:54.517Z,130.67
2023-03-13T06:42:26.219Z,131.67
2023-03-13T06:42:58.112Z,135.00
2023-03-13T06:43:30.416Z,136.00
2023-03-13T06:44:02.510Z,133.67
2023-03-13T06:44:34.350Z,129.00
2023-03-13T06:45:06.551Z,126.33
2023-03-13T06:45:38.908Z,123.67
2023-03-13T06:46:18.676Z,119.67
2023-03-13T06:46:50.425Z,119.67
2023-03-13T06:47:22.156Z,114.33
2023-03-13T06:47:54.079Z,109.67
2023-03-13T06:48:25.796Z,111.00
2023-03-13T06:48:58.457Z,113.67
2023-03-13T06:49:30.194Z,115.67
2023-03-13T06:50:01.889Z,116.00
2023-03-13T06:50:33.602Z,115.00
2023-03-13T06:51:05.488Z,114.00
2023-03-13T06:51:38.291Z,114.00
2023-03-13T06:52:12.155Z,115.00
2023-03-13T06:52:44.389Z,115.33
2023-03-13T06:53:27.686Z,116.00
2023-03-13T06:53:59.490Z,117.00
2023-03-13T06:54:31.176Z,117.33
2023-03-13T06:55:05.880Z,117.00
2023-03-13T06:55:37.660Z,116.67
2023-03-13T06:56:10.541Z,116.00
2023-03-13T06:56:42.384Z,116.00
2023-03-13T06:57:15.441Z,116.33
2023-03-13T06:57:51.357Z,117.00
2023-03-13T06:58:32.095Z,117.00